sensor_id;sensor_type;location;lat;lon;timestamp;P1;durP1;ratioP1;P2;durP2;ratioP2
25213;SDS011;13160;51.834;4.706;2023-04-22T00:01:01;44.05;;;30.02;;
25213;SDS011;13160;51.834;4.706;2023-04-22T00:03:30;48.28;;;29.85;;
25213;SDS011;13160;51.834;4.706;2023-04-22T00:05:59;47.35;;;29.50;;
25213;SDS011;13160;51.834;4.706;2023-04-22T00:08:28;47.75;;;30.67;;
25213;SDS011;13160;51.834;4.706;2023-04-22T00:10:57;45.33;;;28.48;;
25213;SDS011;13160;51.834;4.706;2023-04-22T00:13:26;51.22;;;31.10;;
25213;SDS011;13160;51.834;4.706;2023-04-22T00:15:54;48.00;;;30.48;;
25213;SDS011;13160;51.834;4.706;2023-04-22T00:18:23;45.05;;;30.75;;
25213;SDS011;13160;51.834;4.706;2023-04-22T00:20:51;44.92;;;30.65;;
25213;SDS011;13160;51.834;4.706;2023-04-22T00:23:19;51.65;;;32.92;;
25213;SDS011;13160;51.834;4.706;2023-04-22T00:25:48;50.55;;;32.63;;
25213;SDS011;13160;51.834;4.706;2023-04-22T00:28:17;50.03;;;33.35;;
25213;SDS011;13160;51.834;4.706;2023-04-22T00:30:49;51.10;;;34.03;;
25213;SDS011;13160;51.834;4.706;2023-04-22T00:33:17;48.20;;;33.20;;
25213;SDS011;13160;51.834;4.706;2023-04-22T00:35:46;50.47;;;34.72;;
25213;SDS011;13160;51.834;4.706;2023-04-22T00:38:14;43.78;;;33.08;;
25213;SDS011;13160;51.834;4.706;2023-04-22T00:40:42;46.70;;;32.55;;
25213;SDS011;13160;51.834;4.706;2023-04-22T00:43:14;46.08;;;31.77;;
25213;SDS011;13160;51.834;4.706;2023-04-22T00:45:44;48.83;;;33.75;;
25213;SDS011;13160;51.834;4.706;2023-04-22T00:48:16;48.83;;;33.47;;
25213;SDS011;13160;51.834;4.706;2023-04-22T00:50:45;46.97;;;31.90;;
25213;SDS011;13160;51.834;4.706;2023-04-22T00:53:13;42.03;;;29.98;;
25213;SDS011;13160;51.834;4.706;2023-04-22T00:55:42;47.80;;;34.00;;
25213;SDS011;13160;51.834;4.706;2023-04-22T00:58:10;48.50;;;31.52;;
25213;SDS011;13160;51.834;4.706;2023-04-22T01:00:39;46.45;;;30.75;;
25213;SDS011;13160;51.834;4.706;2023-04-22T01:03:09;55.08;;;33.95;;
25213;SDS011;13160;51.834;4.706;2023-04-22T01:05:39;48.42;;;31.38;;
25213;SDS011;13160;51.834;4.706;2023-04-22T01:08:08;44.63;;;29.70;;
25213;SDS011;13160;51.834;4.706;2023-04-22T01:10:36;47.95;;;29.48;;
25213;SDS011;13160;51.834;4.706;2023-04-22T01:13:05;44.72;;;30.10;;
25213;SDS011;13160;51.834;4.706;2023-04-22T01:15:33;44.47;;;29.83;;
25213;SDS011;13160;51.834;4.706;2023-04-22T01:18:02;44.03;;;28.83;;
25213;SDS011;13160;51.834;4.706;2023-04-22T01:20:32;46.42;;;29.25;;
25213;SDS011;13160;51.834;4.706;2023-04-22T01:23:01;41.25;;;28.38;;
25213;SDS011;13160;51.834;4.706;2023-04-22T01:25:31;41.60;;;27.73;;
25213;SDS011;13160;51.834;4.706;2023-04-22T01:28:00;43.20;;;27.15;;
25213;SDS011;13160;51.834;4.706;2023-04-22T01:30:29;41.22;;;26.75;;
25213;SDS011;13160;51.834;4.706;2023-04-22T01:32:58;48.30;;;29.05;;
25213;SDS011;13160;51.834;4.706;2023-04-22T01:35:27;43.22;;;26.35;;
25213;SDS011;13160;51.834;4.706;2023-04-22T01:38:02;46.42;;;28.38;;
25213;SDS011;13160;51.834;4.706;2023-04-22T01:40:32;47.03;;;28.83;;
25213;SDS011;13160;51.834;4.706;2023-04-22T01:43:01;49.75;;;28.83;;
25213;SDS011;13160;51.834;4.706;2023-04-22T01:45:30;49.85;;;29.63;;
25213;SDS011;13160;51.834;4.706;2023-04-22T01:47:58;48.47;;;30.08;;
25213;SDS011;13160;51.834;4.706;2023-04-22T01:50:27;45.22;;;28.80;;
25213;SDS011;13160;51.834;4.706;2023-04-22T01:52:55;43.78;;;26.63;;
25213;SDS011;13160;51.834;4.706;2023-04-22T01:55:24;41.65;;;26.88;;
25213;SDS011;13160;51.834;4.706;2023-04-22T01:57:54;36.65;;;24.33;;
25213;SDS011;13160;51.834;4.706;2023-04-22T02:00:22;32.10;;;20.40;;
25213;SDS011;13160;51.834;4.706;2023-04-22T02:02:50;28.48;;;19.83;;
25213;SDS011;13160;51.834;4.706;2023-04-22T02:05:19;27.88;;;19.02;;
25213;SDS011;13160;51.834;4.706;2023-04-22T02:07:50;30.85;;;18.88;;
25213;SDS011;13160;51.834;4.706;2023-04-22T02:10:18;25.67;;;17.45;;
25213;SDS011;13160;51.834;4.706;2023-04-22T02:12:50;25.67;;;16.77;;
25213;SDS011;13160;51.834;4.706;2023-04-22T02:15:19;25.58;;;17.60;;
25213;SDS011;13160;51.834;4.706;2023-04-22T02:17:48;22.27;;;15.38;;
25213;SDS011;13160;51.834;4.706;2023-04-22T02:20:16;20.90;;;14.30;;
25213;SDS011;13160;51.834;4.706;2023-04-22T02:22:51;25.58;;;16.45;;
25213;SDS011;13160;51.834;4.706;2023-04-22T02:25:19;34.92;;;17.25;;
25213;SDS011;13160;51.834;4.706;2023-04-22T02:27:50;35.65;;;15.68;;
25213;SDS011;13160;51.834;4.706;2023-04-22T02:30:19;32.97;;;15.25;;
25213;SDS011;13160;51.834;4.706;2023-04-22T02:32:48;25.48;;;16.00;;
25213;SDS011;13160;51.834;4.706;2023-04-22T02:35:16;25.65;;;16.50;;
25213;SDS011;13160;51.834;4.706;2023-04-22T02:37:45;26.55;;;16.50;;
25213;SDS011;13160;51.834;4.706;2023-04-22T02:40:16;26.95;;;17.95;;
25213;SDS011;13160;51.834;4.706;2023-04-22T02:42:44;23.83;;;15.65;;
25213;SDS011;13160;51.834;4.706;2023-04-22T02:45:15;31.23;;;18.48;;
25213;SDS011;13160;51.834;4.706;2023-04-22T02:47:45;27.23;;;17.80;;
25213;SDS011;13160;51.834;4.706;2023-04-22T02:50:16;30.17;;;18.27;;
25213;SDS011;13160;51.834;4.706;2023-04-22T02:52:47;29.92;;;17.63;;
25213;SDS011;13160;51.834;4.706;2023-04-22T02:55:15;25.55;;;15.90;;
25213;SDS011;13160;51.834;4.706;2023-04-22T02:57:44;25.48;;;15.55;;
25213;SDS011;13160;51.834;4.706;2023-04-22T03:00:12;25.20;;;15.23;;
25213;SDS011;13160;51.834;4.706;2023-04-22T03:02:41;21.85;;;14.57;;
25213;SDS011;13160;51.834;4.706;2023-04-22T03:05:11;23.95;;;15.25;;
25213;SDS011;13160;51.834;4.706;2023-04-22T03:07:39;24.88;;;15.60;;
25213;SDS011;13160;51.834;4.706;2023-04-22T03:10:08;23.58;;;16.60;;
25213;SDS011;13160;51.834;4.706;2023-04-22T03:12:36;25.85;;;16.08;;
25213;SDS011;13160;51.834;4.706;2023-04-22T03:15:05;23.88;;;16.02;;
25213;SDS011;13160;51.834;4.706;2023-04-22T03:17:35;26.90;;;16.50;;
25213;SDS011;13160;51.834;4.706;2023-04-22T03:20:03;24.83;;;16.40;;
25213;SDS011;13160;51.834;4.706;2023-04-22T03:22:35;23.77;;;16.50;;
25213;SDS011;13160;51.834;4.706;2023-04-22T03:25:04;24.95;;;16.52;;
25213;SDS011;13160;51.834;4.706;2023-04-22T03:27:33;21.33;;;15.00;;
25213;SDS011;13160;51.834;4.706;2023-04-22T03:30:01;22.45;;;15.18;;
25213;SDS011;13160;51.834;4.706;2023-04-22T03:32:31;22.35;;;14.57;;
25213;SDS011;13160;51.834;4.706;2023-04-22T03:34:59;23.95;;;15.93;;
25213;SDS011;13160;51.834;4.706;2023-04-22T03:37:28;24.50;;;15.52;;
25213;SDS011;13160;51.834;4.706;2023-04-22T03:39:58;23.30;;;14.70;;
25213;SDS011;13160;51.834;4.706;2023-04-22T03:42:26;22.42;;;14.57;;
25213;SDS011;13160;51.834;4.706;2023-04-22T03:44:54;22.65;;;15.77;;
25213;SDS011;13160;51.834;4.706;2023-04-22T03:47:23;23.88;;;15.73;;
25213;SDS011;13160;51.834;4.706;2023-04-22T03:49:51;24.38;;;14.13;;
25213;SDS011;13160;51.834;4.706;2023-04-22T03:52:20;26.55;;;17.23;;
25213;SDS011;13160;51.834;4.706;2023-04-22T03:54:48;23.42;;;15.30;;
25213;SDS011;13160;51.834;4.706;2023-04-22T03:57:18;25.42;;;16.15;;
25213;SDS011;13160;51.834;4.706;2023-04-22T03:59:46;26.08;;;16.60;;
25213;SDS011;13160;51.834;4.706;2023-04-22T04:02:15;28.08;;;17.48;;
25213;SDS011;13160;51.834;4.706;2023-04-22T04:04:43;30.95;;;18.08;;
25213;SDS011;13160;51.834;4.706;2023-04-22T04:07:14;31.75;;;19.35;;
25213;SDS011;13160;51.834;4.706;2023-04-22T04:09:43;32.22;;;18.65;;
25213;SDS011;13160;51.834;4.706;2023-04-22T04:12:14;28.52;;;18.48;;
25213;SDS011;13160;51.834;4.706;2023-04-22T04:14:44;29.65;;;18.38;;
25213;SDS011;13160;51.834;4.706;2023-04-22T04:17:12;27.38;;;18.20;;
25213;SDS011;13160;51.834;4.706;2023-04-22T04:19:40;29.65;;;18.63;;
25213;SDS011;13160;51.834;4.706;2023-04-22T04:22:08;33.38;;;19.88;;
25213;SDS011;13160;51.834;4.706;2023-04-22T04:24:37;33.63;;;21.60;;
25213;SDS011;13160;51.834;4.706;2023-04-22T04:27:07;33.03;;;20.90;;
25213;SDS011;13160;51.834;4.706;2023-04-22T04:29:37;31.73;;;19.98;;
25213;SDS011;13160;51.834;4.706;2023-04-22T04:32:08;32.47;;;19.10;;
25213;SDS011;13160;51.834;4.706;2023-04-22T04:34:37;32.72;;;20.00;;
25213;SDS011;13160;51.834;4.706;2023-04-22T04:37:05;40.25;;;21.67;;
25213;SDS011;13160;51.834;4.706;2023-04-22T04:39:34;39.05;;;20.88;;
25213;SDS011;13160;51.834;4.706;2023-04-22T04:42:03;41.03;;;22.75;;
25213;SDS011;13160;51.834;4.706;2023-04-22T04:44:31;42.60;;;22.45;;
25213;SDS011;13160;51.834;4.706;2023-04-22T04:47:00;47.22;;;23.77;;
25213;SDS011;13160;51.834;4.706;2023-04-22T04:49:30;40.20;;;25.85;;
25213;SDS011;13160;51.834;4.706;2023-04-22T04:51:58;39.00;;;23.60;;
25213;SDS011;13160;51.834;4.706;2023-04-22T04:54:27;38.53;;;24.20;;
25213;SDS011;13160;51.834;4.706;2023-04-22T04:56:55;34.15;;;22.17;;
25213;SDS011;13160;51.834;4.706;2023-04-22T04:59:24;34.30;;;20.33;;
25213;SDS011;13160;51.834;4.706;2023-04-22T05:01:52;33.78;;;21.02;;
25213;SDS011;13160;51.834;4.706;2023-04-22T05:04:21;35.42;;;22.52;;
25213;SDS011;13160;51.834;4.706;2023-04-22T05:06:51;36.65;;;22.60;;
25213;SDS011;13160;51.834;4.706;2023-04-22T05:09:20;37.75;;;22.65;;
25213;SDS011;13160;51.834;4.706;2023-04-22T05:11:48;33.85;;;22.08;;
25213;SDS011;13160;51.834;4.706;2023-04-22T05:14:16;40.97;;;24.00;;
25213;SDS011;13160;51.834;4.706;2023-04-22T05:16:47;42.25;;;22.77;;
25213;SDS011;13160;51.834;4.706;2023-04-22T05:19:16;34.38;;;21.60;;
25213;SDS011;13160;51.834;4.706;2023-04-22T05:21:44;36.45;;;22.95;;
25213;SDS011;13160;51.834;4.706;2023-04-22T05:24:18;37.80;;;23.80;;
25213;SDS011;13160;51.834;4.706;2023-04-22T05:26:47;36.85;;;23.40;;
25213;SDS011;13160;51.834;4.706;2023-04-22T05:29:15;39.42;;;24.08;;
25213;SDS011;13160;51.834;4.706;2023-04-22T05:31:43;37.92;;;25.48;;
25213;SDS011;13160;51.834;4.706;2023-04-22T05:34:12;38.35;;;24.48;;
25213;SDS011;13160;51.834;4.706;2023-04-22T05:36:40;43.05;;;26.48;;
25213;SDS011;13160;51.834;4.706;2023-04-22T05:39:09;44.45;;;26.15;;
25213;SDS011;13160;51.834;4.706;2023-04-22T05:41:39;42.38;;;25.70;;
25213;SDS011;13160;51.834;4.706;2023-04-22T05:44:11;42.60;;;25.92;;
25213;SDS011;13160;51.834;4.706;2023-04-22T05:46:39;45.85;;;25.98;;
25213;SDS011;13160;51.834;4.706;2023-04-22T05:49:08;46.42;;;27.30;;
25213;SDS011;13160;51.834;4.706;2023-04-22T05:51:36;47.70;;;28.73;;
25213;SDS011;13160;51.834;4.706;2023-04-22T05:54:04;46.30;;;27.88;;
25213;SDS011;13160;51.834;4.706;2023-04-22T05:56:33;44.50;;;28.23;;
25213;SDS011;13160;51.834;4.706;2023-04-22T05:59:03;45.22;;;29.55;;
25213;SDS011;13160;51.834;4.706;2023-04-22T06:01:31;46.13;;;28.83;;
25213;SDS011;13160;51.834;4.706;2023-04-22T06:04:00;45.40;;;28.08;;
25213;SDS011;13160;51.834;4.706;2023-04-22T06:06:31;43.50;;;27.05;;
25213;SDS011;13160;51.834;4.706;2023-04-22T06:08:59;44.17;;;28.02;;
25213;SDS011;13160;51.834;4.706;2023-04-22T06:11:28;47.08;;;29.17;;
25213;SDS011;13160;51.834;4.706;2023-04-22T06:13:57;50.03;;;29.92;;
25213;SDS011;13160;51.834;4.706;2023-04-22T06:16:27;52.47;;;32.17;;
25213;SDS011;13160;51.834;4.706;2023-04-22T06:18:56;46.75;;;29.63;;
25213;SDS011;13160;51.834;4.706;2023-04-22T06:21:24;49.60;;;30.73;;
25213;SDS011;13160;51.834;4.706;2023-04-22T06:23:53;54.60;;;31.92;;
25213;SDS011;13160;51.834;4.706;2023-04-22T06:26:25;49.90;;;30.42;;
25213;SDS011;13160;51.834;4.706;2023-04-22T06:28:53;58.83;;;32.95;;
25213;SDS011;13160;51.834;4.706;2023-04-22T06:31:21;57.63;;;32.92;;
25213;SDS011;13160;51.834;4.706;2023-04-22T06:33:51;62.38;;;32.70;;
25213;SDS011;13160;51.834;4.706;2023-04-22T06:36:19;59.60;;;34.65;;
25213;SDS011;13160;51.834;4.706;2023-04-22T06:38:48;59.42;;;36.45;;
25213;SDS011;13160;51.834;4.706;2023-04-22T06:41:16;61.15;;;35.88;;
25213;SDS011;13160;51.834;4.706;2023-04-22T06:43:44;64.72;;;37.15;;
25213;SDS011;13160;51.834;4.706;2023-04-22T06:46:15;67.40;;;38.85;;
25213;SDS011;13160;51.834;4.706;2023-04-22T06:48:43;64.45;;;39.58;;
25213;SDS011;13160;51.834;4.706;2023-04-22T06:51:13;69.30;;;39.92;;
25213;SDS011;13160;51.834;4.706;2023-04-22T06:53:41;71.65;;;41.40;;
25213;SDS011;13160;51.834;4.706;2023-04-22T06:56:10;67.90;;;40.58;;
25213;SDS011;13160;51.834;4.706;2023-04-22T06:58:41;67.53;;;44.55;;
25213;SDS011;13160;51.834;4.706;2023-04-22T07:01:09;76.88;;;45.42;;
25213;SDS011;13160;51.834;4.706;2023-04-22T07:03:38;78.10;;;47.40;;
25213;SDS011;13160;51.834;4.706;2023-04-22T07:06:06;69.25;;;44.67;;
25213;SDS011;13160;51.834;4.706;2023-04-22T07:08:37;60.72;;;42.00;;
25213;SDS011;13160;51.834;4.706;2023-04-22T07:11:05;61.92;;;43.50;;
25213;SDS011;13160;51.834;4.706;2023-04-22T07:13:35;68.93;;;46.20;;
25213;SDS011;13160;51.834;4.706;2023-04-22T07:16:03;47.75;;;36.65;;
25213;SDS011;13160;51.834;4.706;2023-04-22T07:18:32;40.17;;;32.95;;
25213;SDS011;13160;51.834;4.706;2023-04-22T07:21:01;35.25;;;27.80;;
25213;SDS011;13160;51.834;4.706;2023-04-22T07:23:30;38.60;;;27.30;;
25213;SDS011;13160;51.834;4.706;2023-04-22T07:26:00;35.75;;;28.45;;
25213;SDS011;13160;51.834;4.706;2023-04-22T07:28:29;36.60;;;28.33;;
25213;SDS011;13160;51.834;4.706;2023-04-22T07:30:57;35.33;;;28.40;;
25213;SDS011;13160;51.834;4.706;2023-04-22T07:33:26;31.63;;;24.75;;
25213;SDS011;13160;51.834;4.706;2023-04-22T07:35:54;29.20;;;24.08;;
25213;SDS011;13160;51.834;4.706;2023-04-22T07:38:23;32.28;;;26.98;;
25213;SDS011;13160;51.834;4.706;2023-04-22T07:40:52;27.42;;;23.38;;
25213;SDS011;13160;51.834;4.706;2023-04-22T07:43:21;25.83;;;21.13;;
25213;SDS011;13160;51.834;4.706;2023-04-22T07:45:50;27.45;;;22.63;;
25213;SDS011;13160;51.834;4.706;2023-04-22T07:48:18;24.40;;;20.40;;
25213;SDS011;13160;51.834;4.706;2023-04-22T07:50:47;27.55;;;23.05;;
25213;SDS011;13160;51.834;4.706;2023-04-22T07:53:15;25.52;;;21.23;;
25213;SDS011;13160;51.834;4.706;2023-04-22T07:55:43;27.30;;;20.73;;
25213;SDS011;13160;51.834;4.706;2023-04-22T07:58:15;25.67;;;21.52;;
25213;SDS011;13160;51.834;4.706;2023-04-22T08:00:45;24.25;;;21.65;;
25213;SDS011;13160;51.834;4.706;2023-04-22T08:03:13;26.13;;;21.20;;
25213;SDS011;13160;51.834;4.706;2023-04-22T08:05:42;25.10;;;22.50;;
25213;SDS011;13160;51.834;4.706;2023-04-22T08:08:12;25.35;;;21.80;;
25213;SDS011;13160;51.834;4.706;2023-04-22T08:10:41;22.25;;;19.85;;
25213;SDS011;13160;51.834;4.706;2023-04-22T08:13:09;24.98;;;20.15;;
25213;SDS011;13160;51.834;4.706;2023-04-22T08:15:37;21.60;;;18.50;;
25213;SDS011;13160;51.834;4.706;2023-04-22T08:18:07;22.55;;;18.83;;
25213;SDS011;13160;51.834;4.706;2023-04-22T08:20:36;20.40;;;17.90;;
25213;SDS011;13160;51.834;4.706;2023-04-22T08:23:04;19.35;;;17.30;;
25213;SDS011;13160;51.834;4.706;2023-04-22T08:25:33;20.27;;;18.00;;
25213;SDS011;13160;51.834;4.706;2023-04-22T08:28:02;20.98;;;17.63;;
25213;SDS011;13160;51.834;4.706;2023-04-22T08:30:30;19.55;;;16.98;;
25213;SDS011;13160;51.834;4.706;2023-04-22T08:32:59;18.50;;;16.50;;
25213;SDS011;13160;51.834;4.706;2023-04-22T08:35:28;19.23;;;15.95;;
25213;SDS011;13160;51.834;4.706;2023-04-22T08:37:57;18.08;;;15.32;;
25213;SDS011;13160;51.834;4.706;2023-04-22T08:40:26;20.17;;;15.10;;
25213;SDS011;13160;51.834;4.706;2023-04-22T08:42:54;15.90;;;14.00;;
25213;SDS011;13160;51.834;4.706;2023-04-22T08:45:23;16.50;;;13.02;;
25213;SDS011;13160;51.834;4.706;2023-04-22T08:47:52;17.27;;;12.38;;
25213;SDS011;13160;51.834;4.706;2023-04-22T08:50:21;17.48;;;13.00;;
25213;SDS011;13160;51.834;4.706;2023-04-22T08:52:51;16.35;;;13.02;;
25213;SDS011;13160;51.834;4.706;2023-04-22T08:55:20;17.42;;;13.68;;
25213;SDS011;13160;51.834;4.706;2023-04-22T08:57:48;16.20;;;12.45;;
25213;SDS011;13160;51.834;4.706;2023-04-22T09:00:17;16.58;;;12.93;;
25213;SDS011;13160;51.834;4.706;2023-04-22T09:02:46;15.35;;;12.27;;
25213;SDS011;13160;51.834;4.706;2023-04-22T09:05:16;14.15;;;10.55;;
25213;SDS011;13160;51.834;4.706;2023-04-22T09:07:46;15.20;;;11.38;;
25213;SDS011;13160;51.834;4.706;2023-04-22T09:10:16;13.57;;;10.43;;
25213;SDS011;13160;51.834;4.706;2023-04-22T09:12:45;16.92;;;10.93;;
25213;SDS011;13160;51.834;4.706;2023-04-22T09:15:15;15.20;;;10.13;;
25213;SDS011;13160;51.834;4.706;2023-04-22T09:17:44;14.27;;;10.68;;
25213;SDS011;13160;51.834;4.706;2023-04-22T09:20:12;13.90;;;10.50;;
25213;SDS011;13160;51.834;4.706;2023-04-22T09:22:43;13.48;;;9.63;;
25213;SDS011;13160;51.834;4.706;2023-04-22T09:25:16;12.73;;;9.90;;
25213;SDS011;13160;51.834;4.706;2023-04-22T09:27:49;13.75;;;9.93;;
25213;SDS011;13160;51.834;4.706;2023-04-22T09:30:22;10.85;;;8.27;;
25213;SDS011;13160;51.834;4.706;2023-04-22T09:32:52;9.25;;;7.35;;
25213;SDS011;13160;51.834;4.706;2023-04-22T09:35:24;10.55;;;8.02;;
25213;SDS011;13160;51.834;4.706;2023-04-22T09:37:57;12.27;;;9.15;;
25213;SDS011;13160;51.834;4.706;2023-04-22T09:40:30;12.63;;;10.15;;
25213;SDS011;13160;51.834;4.706;2023-04-22T09:43:00;14.25;;;10.05;;
25213;SDS011;13160;51.834;4.706;2023-04-22T09:45:31;12.25;;;9.77;;
25213;SDS011;13160;51.834;4.706;2023-04-22T09:48:02;15.57;;;10.25;;
25213;SDS011;13160;51.834;4.706;2023-04-22T09:50:35;15.20;;;10.27;;
25213;SDS011;13160;51.834;4.706;2023-04-22T09:53:05;12.18;;;10.07;;
25213;SDS011;13160;51.834;4.706;2023-04-22T09:55:38;11.85;;;8.82;;
25213;SDS011;13160;51.834;4.706;2023-04-22T09:58:11;12.27;;;9.18;;
25213;SDS011;13160;51.834;4.706;2023-04-22T10:00:43;11.75;;;8.82;;
25213;SDS011;13160;51.834;4.706;2023-04-22T10:03:15;12.20;;;8.90;;
25213;SDS011;13160;51.834;4.706;2023-04-22T10:05:44;12.95;;;9.25;;
25213;SDS011;13160;51.834;4.706;2023-04-22T10:08:13;12.07;;;9.27;;
25213;SDS011;13160;51.834;4.706;2023-04-22T10:10:44;12.93;;;8.80;;
25213;SDS011;13160;51.834;4.706;2023-04-22T10:13:13;14.30;;;9.68;;
25213;SDS011;13160;51.834;4.706;2023-04-22T10:15:43;13.82;;;9.48;;
25213;SDS011;13160;51.834;4.706;2023-04-22T10:18:17;13.32;;;9.23;;
25213;SDS011;13160;51.834;4.706;2023-04-22T10:20:49;11.15;;;8.82;;
25213;SDS011;13160;51.834;4.706;2023-04-22T10:23:21;10.45;;;8.68;;
25213;SDS011;13160;51.834;4.706;2023-04-22T10:25:53;11.98;;;9.30;;
25213;SDS011;13160;51.834;4.706;2023-04-22T10:28:23;11.30;;;8.93;;
25213;SDS011;13160;51.834;4.706;2023-04-22T10:30:55;12.65;;;8.93;;
25213;SDS011;13160;51.834;4.706;2023-04-22T10:33:36;11.85;;;8.90;;
25213;SDS011;13160;51.834;4.706;2023-04-22T10:36:06;13.70;;;8.63;;
25213;SDS011;13160;51.834;4.706;2023-04-22T10:38:37;10.57;;;8.45;;
25213;SDS011;13160;51.834;4.706;2023-04-22T10:41:13;11.93;;;8.27;;
25213;SDS011;13160;51.834;4.706;2023-04-22T10:43:43;11.85;;;9.18;;
25213;SDS011;13160;51.834;4.706;2023-04-22T10:49:30;12.45;;;8.88;;
25213;SDS011;13160;51.834;4.706;2023-04-22T10:52:00;12.35;;;9.00;;
25213;SDS011;13160;51.834;4.706;2023-04-22T10:57:32;14.73;;;10.13;;
25213;SDS011;13160;51.834;4.706;2023-04-22T11:00:25;14.05;;;10.10;;
25213;SDS011;13160;51.834;4.706;2023-04-22T11:03:23;15.25;;;9.95;;
25213;SDS011;13160;51.834;4.706;2023-04-22T11:06:13;13.82;;;10.27;;
25213;SDS011;13160;51.834;4.706;2023-04-22T11:08:48;14.98;;;10.05;;
25213;SDS011;13160;51.834;4.706;2023-04-22T11:11:17;15.18;;;10.93;;
25213;SDS011;13160;51.834;4.706;2023-04-22T11:13:47;17.90;;;12.07;;
25213;SDS011;13160;51.834;4.706;2023-04-22T11:16:20;15.60;;;11.75;;
25213;SDS011;13160;51.834;4.706;2023-04-22T11:18:48;17.05;;;11.55;;
25213;SDS011;13160;51.834;4.706;2023-04-22T11:21:17;15.85;;;11.98;;
25213;SDS011;13160;51.834;4.706;2023-04-22T11:23:50;17.88;;;12.77;;
25213;SDS011;13160;51.834;4.706;2023-04-22T11:26:30;17.83;;;13.30;;
25213;SDS011;13160;51.834;4.706;2023-04-22T11:29:02;19.08;;;14.38;;
25213;SDS011;13160;51.834;4.706;2023-04-22T11:31:31;19.38;;;14.75;;
25213;SDS011;13160;51.834;4.706;2023-04-22T11:34:02;18.35;;;13.80;;
25213;SDS011;13160;51.834;4.706;2023-04-22T11:36:31;19.80;;;14.57;;
25213;SDS011;13160;51.834;4.706;2023-04-22T11:39:07;18.88;;;14.70;;
25213;SDS011;13160;51.834;4.706;2023-04-22T11:41:40;21.27;;;15.60;;
25213;SDS011;13160;51.834;4.706;2023-04-22T11:44:15;22.50;;;14.73;;
25213;SDS011;13160;51.834;4.706;2023-04-22T11:46:44;20.55;;;15.50;;
25213;SDS011;13160;51.834;4.706;2023-04-22T11:49:12;20.60;;;15.48;;
25213;SDS011;13160;51.834;4.706;2023-04-22T11:51:51;20.75;;;15.65;;
25213;SDS011;13160;51.834;4.706;2023-04-22T11:54:30;21.17;;;16.20;;
25213;SDS011;13160;51.834;4.706;2023-04-22T11:57:04;20.98;;;15.70;;
25213;SDS011;13160;51.834;4.706;2023-04-22T11:59:38;21.30;;;15.52;;
25213;SDS011;13160;51.834;4.706;2023-04-22T12:02:07;22.33;;;16.50;;
25213;SDS011;13160;51.834;4.706;2023-04-22T12:04:36;22.42;;;16.55;;
25213;SDS011;13160;51.834;4.706;2023-04-22T12:07:06;24.40;;;17.13;;
25213;SDS011;13160;51.834;4.706;2023-04-22T12:09:34;21.13;;;16.23;;
25213;SDS011;13160;51.834;4.706;2023-04-22T12:12:03;26.33;;;16.90;;
25213;SDS011;13160;51.834;4.706;2023-04-22T12:14:33;22.42;;;16.88;;
25213;SDS011;13160;51.834;4.706;2023-04-22T12:17:04;24.67;;;16.90;;
25213;SDS011;13160;51.834;4.706;2023-04-22T12:19:37;21.40;;;17.38;;
25213;SDS011;13160;51.834;4.706;2023-04-22T12:22:06;23.45;;;17.10;;
25213;SDS011;13160;51.834;4.706;2023-04-22T12:24:34;25.40;;;19.45;;
25213;SDS011;13160;51.834;4.706;2023-04-22T12:27:03;25.55;;;17.58;;
25213;SDS011;13160;51.834;4.706;2023-04-22T12:29:32;26.35;;;18.48;;
25213;SDS011;13160;51.834;4.706;2023-04-22T12:32:01;27.73;;;19.73;;
25213;SDS011;13160;51.834;4.706;2023-04-22T12:34:30;27.40;;;18.40;;
25213;SDS011;13160;51.834;4.706;2023-04-22T12:36:59;23.60;;;17.30;;
25213;SDS011;13160;51.834;4.706;2023-04-22T12:39:28;22.90;;;16.55;;
25213;SDS011;13160;51.834;4.706;2023-04-22T12:41:57;25.58;;;15.48;;
25213;SDS011;13160;51.834;4.706;2023-04-22T12:44:26;27.35;;;17.58;;
25213;SDS011;13160;51.834;4.706;2023-04-22T12:46:54;23.02;;;16.88;;
25213;SDS011;13160;51.834;4.706;2023-04-22T12:49:22;22.95;;;16.83;;
25213;SDS011;13160;51.834;4.706;2023-04-22T12:51:52;25.08;;;17.48;;
25213;SDS011;13160;51.834;4.706;2023-04-22T12:54:21;23.80;;;17.65;;
25213;SDS011;13160;51.834;4.706;2023-04-22T12:56:50;26.60;;;17.45;;
25213;SDS011;13160;51.834;4.706;2023-04-22T12:59:18;24.75;;;17.77;;
25213;SDS011;13160;51.834;4.706;2023-04-22T13:01:47;27.17;;;17.65;;
25213;SDS011;13160;51.834;4.706;2023-04-22T13:04:17;25.85;;;18.02;;
25213;SDS011;13160;51.834;4.706;2023-04-22T13:06:49;24.60;;;18.88;;
25213;SDS011;13160;51.834;4.706;2023-04-22T13:09:24;24.80;;;17.73;;
25213;SDS011;13160;51.834;4.706;2023-04-22T13:11:52;27.67;;;18.08;;
25213;SDS011;13160;51.834;4.706;2023-04-22T13:14:21;24.75;;;18.42;;
25213;SDS011;13160;51.834;4.706;2023-04-22T13:16:49;25.98;;;18.38;;
25213;SDS011;13160;51.834;4.706;2023-04-22T13:19:18;26.85;;;19.25;;
25213;SDS011;13160;51.834;4.706;2023-04-22T13:21:49;30.20;;;20.20;;
25213;SDS011;13160;51.834;4.706;2023-04-22T13:24:17;28.05;;;20.40;;
25213;SDS011;13160;51.834;4.706;2023-04-22T13:26:47;28.23;;;20.08;;
25213;SDS011;13160;51.834;4.706;2023-04-22T13:29:16;32.38;;;22.45;;
25213;SDS011;13160;51.834;4.706;2023-04-22T13:31:44;30.52;;;22.35;;
25213;SDS011;13160;51.834;4.706;2023-04-22T13:34:13;31.35;;;22.50;;
25213;SDS011;13160;51.834;4.706;2023-04-22T13:36:41;32.05;;;21.92;;
25213;SDS011;13160;51.834;4.706;2023-04-22T13:39:09;33.35;;;21.48;;
25213;SDS011;13160;51.834;4.706;2023-04-22T13:41:39;33.65;;;23.58;;
25213;SDS011;13160;51.834;4.706;2023-04-22T13:44:09;39.40;;;23.90;;
25213;SDS011;13160;51.834;4.706;2023-04-22T13:46:38;30.20;;;23.00;;
25213;SDS011;13160;51.834;4.706;2023-04-22T13:49:08;32.58;;;24.25;;
25213;SDS011;13160;51.834;4.706;2023-04-22T13:51:36;33.83;;;23.45;;
25213;SDS011;13160;51.834;4.706;2023-04-22T13:54:05;34.35;;;24.27;;
25213;SDS011;13160;51.834;4.706;2023-04-22T13:56:34;34.17;;;24.23;;
25213;SDS011;13160;51.834;4.706;2023-04-22T13:59:02;37.30;;;25.40;;
25213;SDS011;13160;51.834;4.706;2023-04-22T14:01:32;34.58;;;24.73;;
25213;SDS011;13160;51.834;4.706;2023-04-22T14:04:00;35.95;;;25.65;;
25213;SDS011;13160;51.834;4.706;2023-04-22T14:06:29;38.08;;;26.92;;
25213;SDS011;13160;51.834;4.706;2023-04-22T14:08:58;37.45;;;27.75;;
25213;SDS011;13160;51.834;4.706;2023-04-22T14:11:26;37.05;;;27.83;;
25213;SDS011;13160;51.834;4.706;2023-04-22T14:13:54;39.65;;;26.00;;
25213;SDS011;13160;51.834;4.706;2023-04-22T14:16:23;42.60;;;28.45;;
25213;SDS011;13160;51.834;4.706;2023-04-22T14:18:53;40.85;;;28.67;;
25213;SDS011;13160;51.834;4.706;2023-04-22T14:21:21;44.13;;;28.40;;
25213;SDS011;13160;51.834;4.706;2023-04-22T14:23:52;38.67;;;29.40;;
25213;SDS011;13160;51.834;4.706;2023-04-22T14:26:21;43.20;;;31.95;;
25213;SDS011;13160;51.834;4.706;2023-04-22T14:28:49;45.80;;;32.03;;
25213;SDS011;13160;51.834;4.706;2023-04-22T14:31:17;44.67;;;30.77;;
25213;SDS011;13160;51.834;4.706;2023-04-22T14:33:46;40.28;;;30.23;;
25213;SDS011;13160;51.834;4.706;2023-04-22T14:36:16;42.92;;;32.30;;
25213;SDS011;13160;51.834;4.706;2023-04-22T14:38:45;46.20;;;32.20;;
25213;SDS011;13160;51.834;4.706;2023-04-22T14:41:16;42.17;;;30.02;;
25213;SDS011;13160;51.834;4.706;2023-04-22T14:43:45;43.75;;;30.77;;